Ana Sayfa
METAR-TAF:

METAR-TAF

Havaalanları :

Cebelitarık, Cebelitarık

Cebelitarık Havalimanı

Enlem: 36-09N, Boylam: 005-21W, yükseklik: 5 m

Güncel hava durumu gözlemi

Rapor saat 20:50 UTC de 1 saat ve 5 dakika önce yapıldı.
Rüzgar batı/güneybatıdan 15 kt
Sıcaklık 15°C
Nem 72%
Basınç 1029 hPa
Görüş mesafesi 10 km veya daha fazla

METAR: LXGB 212050Z AUTO 25015KT 9999 // NCD 15/10 Q1029

Saat: 22:55 (21:55 UTC)

Tahmin

Rapor saat 16:25 UTC de 5 saat ve 30 dakika önce yapıldı.
Ayın 21'si saat 18 UTC'den ayın 21'si saat 22 UTC'ye kadar geçerli Tahmin
Rüzgar batıdan 12 kt
Görüş mesafesi 10 km veya daha fazla
2500 ft yükseklikte az bulutlu

TAF: LXGB 211625Z 2118/2122 27012KT 9999 FEW025

4.000'den fazla havaalanı için hava durumu gözlemleri ve tahminleri (METAR ve TAF raporları).

Kullanılabilir istasyonlar harita üzerinde sarı ve kırmızı noktalarla gösterilir.

İstasyonun adını görmek için fareyi noktanın üzerinde gezdirin.

Sonrasında hava gözlem ve tahminlerini görmek için tıklayın.

Haritayı değiştirmek için: yaklaştırmak için siyah artı işaretli yeşil düğmeye ve uzaklaştırmak için de eksi işaretli düğmeye hızla tıklayın; bitişik haritalar için yeşil okları kullanın.


METAR-TAF: